Time,TemperatureF,DewpointF,PressureIn,WindDirection,WindDirectionDegrees,WindSpeedMPH,WindSpeedGustMPH,Humidity,HourlyPrecipIn,Conditions,Clouds,dailyrainin,SoftwareType,DateUTC
2013-08-25 00:14:00,59.2,54.7,30.24,East,90,0.0,-999.0,85,-99.99,,,0.00,Acu-Link.com,2013-08-25 04:14:00,
2013-08-25 00:30:00,58.6,54.4,30.24,East,90,0.0,-999.0,86,-99.99,,,0.00,Acu-Link.com,2013-08-25 04:30:00,
2013-08-25 00:45:00,58.1,53.9,30.23,East,90,0.0,-999.0,86,-99.99,,,0.00,Acu-Link.com,2013-08-25 04:45:00,
2013-08-25 01:00:00,57.9,53.7,30.24,East,90,0.0,-999.0,86,-99.99,,,0.00,Acu-Link.com,2013-08-25 05:00:00,
2013-08-25 01:15:00,57.6,53.4,30.24,East,90,0.0,-999.0,86,-99.99,,,0.00,Acu-Link.com,2013-08-25 05:15:00,
2013-08-25 01:30:00,57.2,53.0,30.24,East,90,0.0,-999.0,86,-99.99,,,0.00,Acu-Link.com,2013-08-25 05:30:00,
2013-08-25 01:46:00,56.7,52.9,30.24,East,90,0.0,-999.0,87,-99.99,,,0.00,Acu-Link.com,2013-08-25 05:46:00,
2013-08-25 02:01:00,56.3,52.5,30.24,East,90,0.0,-999.0,87,-99.99,,,0.00,Acu-Link.com,2013-08-25 06:01:00,
2013-08-25 02:16:00,55.9,52.4,30.24,East,90,0.0,-999.0,88,-99.99,,,0.00,Acu-Link.com,2013-08-25 06:16:00,
2013-08-25 02:31:00,55.6,52.1,30.24,East,90,0.0,-999.0,88,-99.99,,,0.00,Acu-Link.com,2013-08-25 06:31:00,
2013-08-25 02:47:00,55.4,51.9,30.24,East,90,0.0,-999.0,88,-99.99,,,0.00,Acu-Link.com,2013-08-25 06:47:00,
2013-08-25 03:02:00,55.0,51.5,30.25,East,90,0.0,-999.0,88,-99.99,,,0.00,Acu-Link.com,2013-08-25 07:02:00,
2013-08-25 03:17:00,54.9,51.7,30.25,East,90,0.0,-999.0,89,-99.99,,,0.00,Acu-Link.com,2013-08-25 07:17:00,
2013-08-25 03:33:00,54.7,51.5,30.24,East,90,0.0,-999.0,89,-99.99,,,0.00,Acu-Link.com,2013-08-25 07:33:00,
2013-08-25 03:48:00,54.5,51.3,30.25,East,90,0.0,-999.0,89,-99.99,,,0.00,Acu-Link.com,2013-08-25 07:48:00,
2013-08-25 04:03:00,54.3,51.1,30.25,East,90,0.0,-999.0,89,-99.99,,,0.00,Acu-Link.com,2013-08-25 08:03:00,
2013-08-25 04:19:00,54.3,51.1,30.26,East,90,0.0,-999.0,89,-99.99,,,0.00,Acu-Link.com,2013-08-25 08:19:00,
2013-08-25 04:34:00,54.3,51.1,30.25,East,90,0.0,-999.0,89,-99.99,,,0.00,Acu-Link.com,2013-08-25 08:34:00,
2013-08-25 04:49:00,53.8,50.6,30.26,East,90,0.0,-999.0,89,-99.99,,,0.00,Acu-Link.com,2013-08-25 08:49:00,
2013-08-25 05:05:00,53.4,50.2,30.26,East,90,0.0,-999.0,89,-99.99,,,0.00,Acu-Link.com,2013-08-25 09:05:00,
2013-08-25 05:20:00,53.1,49.9,30.27,East,90,0.0,-999.0,89,-99.99,,,0.00,Acu-Link.com,2013-08-25 09:20:00,
2013-08-25 05:35:00,52.7,49.8,30.27,East,90,0.0,-999.0,90,-99.99,,,0.00,Acu-Link.com,2013-08-25 09:35:00,
2013-08-25 05:51:00,52.9,50.0,30.28,East,90,0.0,-999.0,90,-99.99,,,0.00,Acu-Link.com,2013-08-25 09:51:00,
2013-08-25 06:06:00,53.1,50.2,30.28,East,90,0.0,-999.0,90,-99.99,,,0.00,Acu-Link.com,2013-08-25 10:06:00,
2013-08-25 06:21:00,52.7,49.8,30.29,East,90,0.0,-999.0,90,-99.99,,,0.00,Acu-Link.com,2013-08-25 10:21:00,
2013-08-25 06:36:00,52.9,50.0,30.30,East,90,0.0,-999.0,90,-99.99,,,0.00,Acu-Link.com,2013-08-25 10:36:00,
2013-08-25 06:52:00,53.2,50.3,30.31,East,90,0.0,-999.0,90,-99.99,,,0.00,Acu-Link.com,2013-08-25 10:52:00,
2013-08-25 07:07:00,53.8,50.9,30.31,East,90,0.0,-999.0,90,-99.99,,,0.00,Acu-Link.com,2013-08-25 11:07:00,
2013-08-25 07:22:00,54.1,51.2,30.31,East,90,0.0,-999.0,90,-99.99,,,0.00,Acu-Link.com,2013-08-25 11:22:00,
2013-08-25 07:38:00,54.3,51.4,30.31,East,90,0.0,-999.0,90,-99.99,,,0.00,Acu-Link.com,2013-08-25 11:38:00,
2013-08-25 07:53:00,54.5,51.6,30.31,East,90,0.0,-999.0,90,-99.99,,,0.00,Acu-Link.com,2013-08-25 11:53:00,
2013-08-25 08:08:00,55.2,52.3,30.31,East,90,0.0,-999.0,90,-99.99,,,0.00,Acu-Link.com,2013-08-25 12:08:00,
2013-08-25 08:24:00,55.8,52.9,30.31,East,90,0.0,-999.0,90,-99.99,,,0.00,Acu-Link.com,2013-08-25 12:24:00,
2013-08-25 08:39:00,56.5,53.3,30.32,East,90,0.0,-999.0,89,-99.99,,,0.00,Acu-Link.com,2013-08-25 12:39:00,
2013-08-25 08:54:00,57.4,54.2,30.31,East,90,0.0,-999.0,89,-99.99,,,0.00,Acu-Link.com,2013-08-25 12:54:00,
2013-08-25 09:09:00,58.5,55.0,30.30,SW,225,0.0,-999.0,88,-99.99,,,0.00,Acu-Link.com,2013-08-25 13:09:00,
2013-08-25 09:24:00,60.3,55.8,30.30,East,90,0.0,-999.0,85,-99.99,,,0.00,Acu-Link.com,2013-08-25 13:24:00,
2013-08-25 09:40:00,62.1,56.9,30.31,WSW,247,1.1,-999.0,83,-99.99,,,0.00,Acu-Link.com,2013-08-25 13:40:00,
2013-08-25 09:55:00,64.6,57.2,30.31,WSW,247,0.0,-999.0,77,-99.99,,,0.00,Acu-Link.com,2013-08-25 13:55:00,
2013-08-25 10:10:00,67.1,57.8,30.30,ESE,112,0.0,-999.0,72,-99.99,,,0.00,Acu-Link.com,2013-08-25 14:10:00,
2013-08-25 10:26:00,68.7,58.9,30.30,NNE,22,1.1,-999.0,71,-99.99,,,0.00,Acu-Link.com,2013-08-25 14:26:00,
2013-08-25 10:41:00,68.9,59.1,30.30,West,270,0.0,-999.0,71,-99.99,,,0.00,Acu-Link.com,2013-08-25 14:41:00,
2013-08-25 10:56:00,71.1,59.2,30.29,West,270,1.7,-999.0,66,-99.99,,,0.00,Acu-Link.com,2013-08-25 14:56:00,
2013-08-25 11:11:00,73.9,59.1,30.28,East,90,1.1,-999.0,60,-99.99,,,0.00,Acu-Link.com,2013-08-25 15:11:00,
2013-08-25 11:27:00,74.5,59.7,30.27,NNW,337,2.2,-999.0,60,-99.99,,,0.00,Acu-Link.com,2013-08-25 15:27:00,
2013-08-25 11:42:00,75.4,60.1,30.26,NNW,337,1.1,-999.0,59,-99.99,,,0.00,Acu-Link.com,2013-08-25 15:42:00,
2013-08-25 11:57:00,77.9,60.4,30.26,SW,225,2.7,-999.0,55,-99.99,,,0.00,Acu-Link.com,2013-08-25 15:57:00,
2013-08-25 12:13:00,80.2,59.3,30.26,South,180,2.7,-999.0,49,-99.99,,,0.00,Acu-Link.com,2013-08-25 16:13:00,
2013-08-25 12:28:00,79.0,59.3,30.25,West,270,2.2,-999.0,51,-99.99,,,0.00,Acu-Link.com,2013-08-25 16:28:00,
2013-08-25 12:43:00,81.1,57.7,30.25,East,90,2.2,-999.0,45,-99.99,,,0.00,Acu-Link.com,2013-08-25 16:43:00,
2013-08-25 12:58:00,81.0,57.6,30.25,SW,225,2.7,-999.0,45,-99.99,,,0.00,Acu-Link.com,2013-08-25 16:58:00,
2013-08-25 13:14:00,80.2,55.7,30.25,West,270,1.7,-999.0,43,-99.99,,,0.00,Acu-Link.com,2013-08-25 17:14:00,
2013-08-25 13:29:00,81.9,55.2,30.23,NW,315,1.7,-999.0,40,-99.99,,,0.00,Acu-Link.com,2013-08-25 17:29:00,
2013-08-25 13:44:00,82.6,57.2,30.23,WNW,292,2.2,-999.0,42,-99.99,,,0.00,Acu-Link.com,2013-08-25 17:44:00,
2013-08-25 14:00:00,80.6,56.6,30.22,West,270,0.0,-999.0,44,-99.99,,,0.00,Acu-Link.com,2013-08-25 18:00:00,
2013-08-25 14:15:00,81.9,56.5,30.21,NNW,337,2.2,-999.0,42,-99.99,,,0.00,Acu-Link.com,2013-08-25 18:15:00,
2013-08-25 14:30:00,82.9,56.1,30.21,West,270,0.0,-999.0,40,-99.99,,,0.00,Acu-Link.com,2013-08-25 18:30:00,
2013-08-25 14:46:00,83.1,57.6,30.20,SSW,202,0.0,-999.0,42,-99.99,,,0.00,Acu-Link.com,2013-08-25 18:46:00,
2013-08-25 15:01:00,84.2,56.5,30.20,West,270,3.2,-999.0,39,-99.99,,,0.00,Acu-Link.com,2013-08-25 19:01:00,
2013-08-25 15:16:00,83.7,56.8,30.20,SE,135,1.1,-999.0,40,-99.99,,,0.00,Acu-Link.com,2013-08-25 19:16:00,
2013-08-25 15:31:00,86.0,57.4,30.19,North,0,1.7,-999.0,38,-99.99,,,0.00,Acu-Link.com,2013-08-25 19:31:00,
2013-08-25 15:47:00,83.3,57.8,30.18,NW,315,2.7,-999.0,42,-99.99,,,0.00,Acu-Link.com,2013-08-25 19:47:00,
2013-08-25 16:02:00,83.7,57.5,30.18,West,270,0.0,-999.0,41,-99.99,,,0.00,Acu-Link.com,2013-08-25 20:02:00,
2013-08-25 16:17:00,84.2,57.2,30.17,SSW,202,1.7,-999.0,40,-99.99,,,0.00,Acu-Link.com,2013-08-25 20:17:00,
2013-08-25 16:33:00,86.4,57.8,30.16,ESE,112,2.2,-999.0,38,-99.99,,,0.00,Acu-Link.com,2013-08-25 20:33:00,
2013-08-25 16:48:00,86.2,58.3,30.15,ESE,112,1.7,-999.0,39,-99.99,,,0.00,Acu-Link.com,2013-08-25 20:48:00,
2013-08-25 17:03:00,84.6,58.3,30.14,NNW,337,0.0,-999.0,41,-99.99,,,0.00,Acu-Link.com,2013-08-25 21:03:00,
2013-08-25 17:18:00,83.7,58.8,30.14,East,90,0.0,-999.0,43,-99.99,,,0.00,Acu-Link.com,2013-08-25 21:18:00,
2013-08-25 17:34:00,82.8,57.3,30.13,ESE,112,2.2,-999.0,42,-99.99,,,0.00,Acu-Link.com,2013-08-25 21:34:00,
2013-08-25 17:49:00,82.4,57.6,30.14,East,90,1.7,-999.0,43,-99.99,,,0.00,Acu-Link.com,2013-08-25 21:49:00,
2013-08-25 18:04:00,81.7,57.6,30.13,East,90,3.2,-999.0,44,-99.99,,,0.00,Acu-Link.com,2013-08-25 22:04:00,
2013-08-25 18:19:00,81.1,58.3,30.13,NNE,22,0.0,-999.0,46,-99.99,,,0.00,Acu-Link.com,2013-08-25 22:19:00,
2013-08-25 18:35:00,80.6,59.6,30.12,ESE,112,0.0,-999.0,49,-99.99,,,0.00,Acu-Link.com,2013-08-25 22:35:00,
2013-08-25 18:50:00,79.7,59.4,30.12,East,90,1.1,-999.0,50,-99.99,,,0.00,Acu-Link.com,2013-08-25 22:50:00,
2013-08-25 19:05:00,78.8,59.1,30.12,NE,45,0.0,-999.0,51,-99.99,,,0.00,Acu-Link.com,2013-08-25 23:05:00,
2013-08-25 19:20:00,77.5,58.5,30.12,NW,315,0.0,-999.0,52,-99.99,,,0.00,Acu-Link.com,2013-08-25 23:20:00,
2013-08-25 19:36:00,76.5,58.6,30.11,NW,315,0.0,-999.0,54,-99.99,,,0.00,Acu-Link.com,2013-08-25 23:36:00,
2013-08-25 19:51:00,75.6,58.3,30.11,NW,315,0.0,-999.0,55,-99.99,,,0.00,Acu-Link.com,2013-08-25 23:51:00,
2013-08-25 20:06:00,74.8,58.0,30.10,NNW,337,1.1,-999.0,56,-99.99,,,0.00,Acu-Link.com,2013-08-26 00:06:00,
2013-08-25 20:21:00,74.3,58.6,30.12,NW,315,0.0,-999.0,58,-99.99,,,0.00,Acu-Link.com,2013-08-26 00:21:00,
2013-08-25 20:37:00,73.8,59.0,30.11,WSW,247,1.1,-999.0,60,-99.99,,,0.00,Acu-Link.com,2013-08-26 00:37:00,
2013-08-25 20:52:00,73.2,58.9,30.12,WSW,247,0.0,-999.0,61,-99.99,,,0.00,Acu-Link.com,2013-08-26 00:52:00,
2013-08-25 21:07:00,72.7,58.9,30.11,South,180,0.0,-999.0,62,-99.99,,,0.00,Acu-Link.com,2013-08-26 01:07:00,
2013-08-25 21:22:00,72.1,58.8,30.12,West,270,0.0,-999.0,63,-99.99,,,0.00,Acu-Link.com,2013-08-26 01:22:00,
2013-08-25 21:37:00,71.8,59.0,30.12,West,270,0.0,-999.0,64,-99.99,,,0.00,Acu-Link.com,2013-08-26 01:37:00,
2013-08-25 21:53:00,71.6,59.2,30.13,SSW,202,0.0,-999.0,65,-99.99,,,0.00,Acu-Link.com,2013-08-26 01:53:00,
2013-08-25 22:08:00,71.4,59.0,30.13,South,180,0.0,-999.0,65,-99.99,,,0.00,Acu-Link.com,2013-08-26 02:08:00,
2013-08-25 22:23:00,70.9,59.0,30.13,South,180,0.0,-999.0,66,-99.99,,,0.00,Acu-Link.com,2013-08-26 02:23:00,
2013-08-25 22:39:00,70.3,59.2,30.12,South,180,0.0,-999.0,68,-99.99,,,0.00,Acu-Link.com,2013-08-26 02:39:00,
2013-08-25 22:54:00,70.0,58.9,30.13,South,180,0.0,-999.0,68,-99.99,,,0.00,Acu-Link.com,2013-08-26 02:54:00,
2013-08-25 23:09:00,69.4,58.8,30.12,West,270,0.0,-999.0,69,-99.99,,,0.00,Acu-Link.com,2013-08-26 03:09:00,
2013-08-25 23:25:00,69.4,59.2,30.12,West,270,0.0,-999.0,70,-99.99,,,0.00,Acu-Link.com,2013-08-26 03:25:00,
2013-08-25 23:40:00,69.4,59.2,30.11,West,270,0.0,-999.0,70,-99.99,,,0.00,Acu-Link.com,2013-08-26 03:40:00,
2013-08-25 23:55:00,69.3,59.5,30.11,West,270,0.0,-999.0,71,-99.99,,,0.00,Acu-Link.com,2013-08-26 03:55:00,